Grand Junction, CO

3:05 PM MST on December 22, 2014 (GMT -0700)
Garfield County Regional | Change Station
CLOSE
Current Station
Airport
Location: Rifle,
Elevation: 5541 ft
Nearby Weather Stations

Elev 5541 ft 39.52 °N, 107.73 °W | Updated 12 minutes ago

Rain
Rain
38 °F
Feels Like 28 °F
N
17
Wind Variable Wind from WNW

Today
High -- | Low -- °F
--% Chance of Precip.
Yesterday
High -- | Low -- °F
Precip. -- in
7:30 AM 4:55 PM
New Moon, 1% visible
Pressure 29.77 in
Visibility 10.0 miles
Clouds Few 10000 ft
Windchill 28 °F
Dew Point 24 °F
Humidity 57%
Rainfall 0.01 in
Snow Depth Not available.
UV 1 out of 12
Pollen .10 out of 12
Air Quality Not available.
Flu Activity Not available.
METAR KRIL 222153Z AUTO 29015KT 10SM FEW100 03/M04 A2977 RMK AO2 SNE06 SLP079 P0000 T00331044

More Conditions Fewer Conditions

Pressure 29.77 in
Visibility 10.0 miles
Clouds Few 10000 ft
Windchill 28 °F
Dew Point 24 °F
Humidity 57%
Rainfall 0.01 in
Snow Depth Not available.
UV 1 out of 12
Pollen .10 out of 12
Air Quality Not available.
Flu Activity Not available.
METAR KRIL 222153Z AUTO 29015KT 10SM FEW100 03/M04 A2977 RMK AO2 SNE06 SLP079 P0000 T00331044

More Conditions Fewer Conditions

Nowcast | as of 1:56 PM MST on December 22, 2014

At 153 PM MST...Doppler radar indicated a band of heavier rain and snowshowers from Douglas Pass southeast to Ouray. Some weak thunderstorms are also embedded in this band. Brief pea-sized hail...gusty winds of 40 mph...and heavy rain/snow is possible under this band. Higher terrain under this band may see near white-out conditions over the next 1 to 1 1/2 hours.

×

10-Day Weather Forecast

Almanac

Astronomy

Dec. 22, 2014 Rise Set
Actual Time
Civil Twilight
Nautical Twilight
Astronomical Twilight
Moon
Length of Visible Light
Length of Day
Tomorrow will be .
, % of the Moon is Illuminated

Today's Extremes

State Highs State Lows

Community

WunderPhotos

Upload Photos

1,779,691 photos uploaded!

WunderBlogs® & News

Nearby

Air Quality

  Air Quality AQ Index Pollutant
Not available.

Snow Depth

Station Depth Elevation

Earthquake Activity

City Distance Mag. Time & Date
Minimum magnitude displayed is 2.5.

Coastal Water Temperatures

Place Temperature

Nearby Weather Stations